Apsley, Canada
Current Conditions -  °F | °C
As of 7:00 PM on Sunday 21 Dec 2014 (Local Time) from CYPQ Reporting Station
Overcast Overcast  
Wind Chill: 28°   Ceiling: 3200
Heat Index: 28°   Visibility: 9mi
Dew Point: 27°   Wind: 3mph
Humidity: 93%   Direction: 180°S
Pressure: 30.3"   Gusts: NA
Location:  44.75°N, 78.08°W
Report Text: CYPQ 220000Z AUTO 18003KT 9SM OVC032 M02/M03 A3030 RMK SLP272
Loading
Personal Weather Stations






























Interactive Weather Map New forecast layout! Learn more

10-Day Weather Forecast

Advertisements
Track Severe Weather on mobile